Time;durP1;ratioP1;P1;durP2;ratioP2;P2;SDS_P1;SDS_P2;PMS_P1;PMS_P2;Temp;Humidity;BMP_temperature;BMP_pressure;BME280_temperature;BME280_humidity;BME280_pressure;Samples;Min_cycle;Max_cycle;Signal;HPM_P1;HPM_P2
2021/03/12 00:02:10;;;;;;;5.10;0.98;;;5.00;99.90;;;;;;5050230;28;20029;-73
2021/03/12 00:04:36;;;;;;;3.78;1.42;;;5.00;99.90;;;;;;5051291;28;20035;-74
2021/03/12 00:07:02;;;;;;;6.45;1.88;;;5.00;99.90;;;;;;5050720;28;20444;-73
2021/03/12 00:09:28;;;;;;;2.20;1.80;;;5.00;99.90;;;;;;5051020;28;20037;-74
2021/03/12 00:11:53;;;;;;;5.43;2.75;;;5.00;99.90;;;;;;5050574;28;20029;-73
2021/03/12 00:14:19;;;;;;;5.72;2.22;;;5.00;99.90;;;;;;5051075;28;20556;-73
2021/03/12 00:16:46;;;;;;;57.00;3.25;;;4.90;99.90;;;;;;5049386;28;20087;-73
2021/03/12 00:19:11;;;;;;;4.03;2.42;;;4.90;99.90;;;;;;5047167;28;20057;-74
2021/03/12 00:21:38;;;;;;;4.20;2.47;;;5.00;99.90;;;;;;5029395;28;20075;-74
2021/03/12 00:24:04;;;;;;;3.78;2.38;;;5.00;99.90;;;;;;5050942;28;20070;-73
2021/03/12 00:26:30;;;;;;;8.30;2.55;;;5.00;99.90;;;;;;5050440;28;20032;-73
2021/03/12 00:28:56;;;;;;;6.22;3.13;;;5.00;99.90;;;;;;5050845;28;20495;-73
2021/03/12 00:31:21;;;;;;;6.45;2.90;;;5.00;99.90;;;;;;5050322;28;20033;-73
2021/03/12 00:33:47;;;;;;;6.80;3.05;;;4.90;99.90;;;;;;5050856;28;20029;-73
2021/03/12 00:36:13;;;;;;;8.45;3.45;;;4.90;99.90;;;;;;5050397;28;20025;-73
2021/03/12 00:38:39;;;;;;;6.63;3.25;;;4.90;99.90;;;;;;5049630;28;20040;-73
2021/03/12 00:41:07;;;;;;;5.25;2.88;;;4.90;99.90;;;;;;5048947;28;20028;-73
2021/03/12 00:43:39;;;;;;;6.43;3.15;;;4.90;99.90;;;;;;5049501;28;20112;-73
2021/03/12 00:46:14;;;;;;;8.43;2.93;;;4.90;99.90;;;;;;5048961;28;20025;-73
2021/03/12 00:48:40;;;;;;;6.35;3.25;;;4.90;99.90;;;;;;5049299;28;20025;-73
2021/03/12 00:51:07;;;;;;;6.90;3.92;;;4.90;99.90;;;;;;5048718;28;20113;-73
2021/03/12 00:53:42;;;;;;;8.18;3.97;;;5.00;99.90;;;;;;5049618;28;20449;-73
2021/03/12 00:56:08;;;;;;;5.07;3.55;;;5.00;99.90;;;;;;5048783;28;20029;-73
2021/03/12 00:58:36;;;;;;;5.53;3.40;;;5.00;99.90;;;;;;5048850;28;20021;-75
2021/03/12 01:01:04;;;;;;;6.03;3.33;;;5.00;99.90;;;;;;5046514;28;20509;-73
2021/03/12 01:03:33;;;;;;;5.22;3.47;;;5.10;99.90;;;;;;5082692;28;20559;-73
2021/03/12 01:06:05;;;;;;;9.45;3.80;;;5.10;99.90;;;;;;5048753;28;20052;-73
2021/03/12 01:08:39;;;;;;;4.70;2.92;;;5.10;99.90;;;;;;5049047;28;20487;-73
2021/03/12 01:11:06;;;;;;;5.65;3.33;;;5.20;99.90;;;;;;5048403;28;20072;-74
2021/03/12 01:13:34;;;;;;;5.97;3.13;;;5.20;99.90;;;;;;5048874;28;20033;-75
2021/03/12 01:16:00;;;;;;;4.63;2.60;;;5.20;99.90;;;;;;5032433;28;20021;-76
2021/03/12 01:18:30;;;;;;;3.50;1.30;;;5.10;99.90;;;;;;5048181;28;20035;-75
2021/03/12 01:21:01;;;;;;;2.47;1.52;;;5.10;99.90;;;;;;5028546;28;20033;-74
2021/03/12 01:23:26;;;;;;;3.78;1.27;;;4.90;99.90;;;;;;5048707;28;20052;-74
2021/03/12 01:25:53;;;;;;;0.73;0.60;;;4.80;99.90;;;;;;5048797;28;20033;-75
2021/03/12 01:28:22;;;;;;;1.63;0.70;;;4.70;99.90;;;;;;5047922;28;20121;-74
2021/03/12 01:30:50;;;;;;;0.22;0.20;;;4.60;99.90;;;;;;5047833;28;20025;-74
2021/03/12 01:33:28;;;;;;;0.40;0.30;;;4.50;99.90;;;;;;5048622;28;20029;-73
2021/03/12 01:35:56;;;;;;;0.43;0.30;;;4.30;99.90;;;;;;5081871;28;20052;-74
2021/03/12 01:38:22;;;;;;;1.23;0.20;;;4.10;99.90;;;;;;5081198;28;20411;-74
2021/03/12 01:40:49;;;;;;;0.40;0.20;;;4.00;99.90;;;;;;5084048;28;20029;-73
2021/03/12 01:43:17;;;;;;;0.73;0.38;;;3.90;99.90;;;;;;5064396;28;20443;-74
2021/03/12 01:45:46;;;;;;;0.13;0.05;;;3.80;99.90;;;;;;5081841;28;20025;-74
2021/03/12 01:48:14;;;;;;;0.10;0.10;;;3.70;99.90;;;;;;5078694;28;20504;-73
2021/03/12 01:50:43;;;;;;;0.17;0.10;;;3.60;99.90;;;;;;5047634;28;20053;-72
2021/03/12 01:53:16;;;;;;;0.17;0.17;;;3.50;99.90;;;;;;5049948;28;20025;-74
2021/03/12 01:55:42;;;;;;;0.98;0.13;;;3.50;99.90;;;;;;5081863;28;20033;-73
2021/03/12 01:58:09;;;;;;;0.10;0.10;;;3.50;99.90;;;;;;5046335;28;20127;-72
2021/03/12 02:00:41;;;;;;;0.10;0.10;;;3.50;99.90;;;;;;5045201;28;20025;-72
2021/03/12 02:03:28;;;;;;;0.28;0.00;;;3.40;99.90;;;;;;5079511;28;20470;-72
2021/03/12 02:06:01;;;;;;;0.25;0.10;;;3.40;99.90;;;;;;5046850;28;20017;-73
2021/03/12 02:08:28;;;;;;;0.10;0.05;;;3.40;99.90;;;;;;5081223;28;20141;-73
2021/03/12 02:11:05;;;;;;;0.30;0.25;;;3.40;99.90;;;;;;5081483;28;20025;-72
2021/03/12 02:14:01;;;;;;;0.68;0.08;;;3.30;99.90;;;;;;5052219;28;20572;-73
2021/03/12 02:16:32;;;;;;;0.63;0.10;;;3.30;99.90;;;;;;5051284;28;20025;-73
2021/03/12 02:19:09;;;;;;;1.45;0.10;;;3.30;99.90;;;;;;5053491;28;20086;-73
2021/03/12 02:21:39;;;;;;;0.10;0.10;;;3.20;99.90;;;;;;5078671;28;20035;-72
2021/03/12 02:24:16;;;;;;;1.00;0.10;;;3.20;99.90;;;;;;5085798;28;20404;-72
2021/03/12 02:26:41;;;;;;;1.67;0.20;;;3.20;99.90;;;;;;5083394;28;20036;-72
2021/03/12 02:29:21;;;;;;;0.40;0.30;;;3.20;99.90;;;;;;5085707;28;20021;-72
2021/03/12 02:31:48;;;;;;;0.40;0.08;;;3.20;99.90;;;;;;5052661;28;20024;-72
2021/03/12 02:34:17;;;;;;;0.10;0.10;;;3.20;99.90;;;;;;5083230;28;20037;-73
2021/03/12 02:36:47;;;;;;;0.52;0.20;;;3.20;99.90;;;;;;5084922;28;20029;-73
2021/03/12 02:39:19;;;;;;;0.90;0.40;;;3.30;99.90;;;;;;5082862;28;20029;-72
2021/03/12 02:41:50;;;;;;;1.65;0.25;;;3.20;99.90;;;;;;5084685;28;20119;-72
2021/03/12 02:44:25;;;;;;;0.20;0.20;;;3.30;99.90;;;;;;5084402;28;20407;-72
2021/03/12 02:47:01;;;;;;;0.70;0.35;;;3.30;99.90;;;;;;5082464;28;20549;-73
2021/03/12 02:49:28;;;;;;;0.60;0.30;;;3.30;99.90;;;;;;5085307;28;20082;-72
2021/03/12 02:51:56;;;;;;;1.85;0.30;;;3.30;99.90;;;;;;5084467;28;20506;-73
2021/03/12 02:54:22;;;;;;;2.03;0.22;;;3.30;99.90;;;;;;5050415;28;20286;-73
2021/03/12 02:56:48;;;;;;;1.67;0.40;;;3.30;99.90;;;;;;5051624;28;20043;-72
2021/03/12 02:59:17;;;;;;;1.33;0.30;;;3.30;99.90;;;;;;5068177;28;20036;-72
2021/03/12 03:01:56;;;;;;;3.60;0.60;;;3.30;99.90;;;;;;5079065;28;20048;-73
2021/03/12 03:04:32;;;;;;;0.65;0.40;;;3.30;99.90;;;;;;5035844;28;20021;-72
2021/03/12 03:07:11;;;;;;;0.93;0.35;;;3.30;99.90;;;;;;5084715;28;20029;-72
2021/03/12 03:09:39;;;;;;;0.60;0.50;;;3.30;99.90;;;;;;5083041;28;20625;-73
2021/03/12 03:12:07;;;;;;;0.65;0.40;;;3.30;99.90;;;;;;5083915;28;20507;-73
2021/03/12 03:14:33;;;;;;;5.97;0.50;;;3.30;99.90;;;;;;5082184;28;20039;-73
2021/03/12 03:17:05;;;;;;;1.40;0.50;;;3.40;99.90;;;;;;5084198;28;20056;-72
2021/03/12 03:19:32;;;;;;;2.50;0.65;;;3.40;99.90;;;;;;5051076;28;20428;-73
2021/03/12 03:21:59;;;;;;;2.60;0.45;;;3.40;99.90;;;;;;5046980;28;20744;-72
2021/03/12 03:24:26;;;;;;;0.55;0.40;;;3.40;99.90;;;;;;5052090;28;20115;-72
2021/03/12 03:26:52;;;;;;;3.60;0.52;;;3.40;99.90;;;;;;5050355;28;20048;-72
2021/03/12 03:29:18;;;;;;;0.77;0.35;;;3.40;99.90;;;;;;5051070;28;20029;-72
2021/03/12 03:31:45;;;;;;;3.17;0.50;;;3.40;99.90;;;;;;5080382;28;20121;-73
2021/03/12 03:34:12;;;;;;;3.22;0.40;;;3.40;99.90;;;;;;5052358;28;20093;-72
2021/03/12 03:36:38;;;;;;;1.08;0.50;;;3.40;99.90;;;;;;5050208;28;20025;-72
2021/03/12 03:39:07;;;;;;;0.95;0.50;;;3.30;99.90;;;;;;5084416;28;20500;-73
2021/03/12 03:41:39;;;;;;;1.00;0.40;;;3.30;99.90;;;;;;5048494;28;20041;-73
2021/03/12 03:44:05;;;;;;;1.38;0.73;;;3.30;99.90;;;;;;5084350;28;20025;-73
2021/03/12 03:46:38;;;;;;;1.27;0.60;;;3.30;99.90;;;;;;5047471;28;20052;-73
2021/03/12 03:49:06;;;;;;;1.00;0.65;;;3.30;99.90;;;;;;5084052;28;20025;-73
2021/03/12 03:51:40;;;;;;;0.70;0.60;;;3.30;99.90;;;;;;5048139;28;20035;-73
2021/03/12 03:54:07;;;;;;;2.10;0.63;;;3.30;99.90;;;;;;5083919;28;20033;-73
2021/03/12 03:56:36;;;;;;;2.05;0.80;;;3.30;99.90;;;;;;5033304;28;20120;-73
2021/03/12 03:59:04;;;;;;;2.42;0.55;;;3.30;99.90;;;;;;5050439;28;20028;-73
2021/03/12 04:01:33;;;;;;;2.10;0.88;;;3.30;99.90;;;;;;5082935;28;20041;-73
2021/03/12 04:03:59;;;;;;;0.90;0.82;;;3.30;99.90;;;;;;5083828;28;20025;-73
2021/03/12 04:06:30;;;;;;;1.40;0.60;;;3.30;99.90;;;;;;5083389;28;20074;-73
2021/03/12 04:09:02;;;;;;;0.95;0.85;;;3.30;99.90;;;;;;5078023;28;20026;-73
2021/03/12 04:11:31;;;;;;;3.13;0.95;;;3.20;99.90;;;;;;5079796;28;20041;-73
2021/03/12 04:13:58;;;;;;;1.05;0.70;;;3.20;99.90;;;;;;5050053;28;20025;-73
2021/03/12 04:16:27;;;;;;;2.30;0.70;;;3.20;99.90;;;;;;5082196;28;20543;-73
2021/03/12 04:18:53;;;;;;;0.75;0.73;;;3.10;99.90;;;;;;5082084;28;20033;-73
2021/03/12 04:21:21;;;;;;;1.40;0.63;;;3.10;99.90;;;;;;5081128;28;20091;-73
2021/03/12 04:23:55;;;;;;;1.43;1.00;;;3.10;99.90;;;;;;5080587;28;20032;-73
2021/03/12 04:26:23;;;;;;;5.15;0.90;;;3.10;99.90;;;;;;5083022;28;20094;-73
2021/03/12 04:28:50;;;;;;;4.43;0.80;;;3.10;99.90;;;;;;5049755;28;20025;-73
2021/03/12 04:31:16;;;;;;;3.80;0.80;;;3.00;99.90;;;;;;5048988;28;20032;-73
2021/03/12 04:33:42;;;;;;;3.75;0.88;;;3.00;99.90;;;;;;5033029;28;20175;-73
2021/03/12 04:36:10;;;;;;;2.50;0.57;;;3.00;99.90;;;;;;5048941;28;20041;-73
2021/03/12 04:38:37;;;;;;;2.33;0.80;;;3.00;99.90;;;;;;5049617;28;20036;-74
2021/03/12 04:41:03;;;;;;;2.53;0.90;;;3.00;99.90;;;;;;5082477;28;20172;-73
2021/03/12 04:43:31;;;;;;;3.40;1.10;;;3.00;99.90;;;;;;5050908;28;20033;-73
2021/03/12 04:46:01;;;;;;;2.00;0.80;;;3.00;99.90;;;;;;5049671;28;20029;-73
2021/03/12 04:48:28;;;;;;;8.55;0.85;;;3.00;99.90;;;;;;5082448;28;20029;-75
2021/03/12 04:50:53;;;;;;;1.35;0.65;;;3.00;99.90;;;;;;5047094;28;20021;-73
2021/03/12 04:53:19;;;;;;;1.60;0.98;;;3.00;99.90;;;;;;5082688;28;20039;-73
2021/03/12 04:55:46;;;;;;;1.90;1.00;;;3.00;99.90;;;;;;5049457;28;20037;-73
2021/03/12 04:58:17;;;;;;;1.27;0.70;;;3.00;99.90;;;;;;5080018;28;20049;-73
2021/03/12 05:00:43;;;;;;;4.05;1.00;;;3.00;99.90;;;;;;5082163;28;20033;-73
2021/03/12 05:03:12;;;;;;;3.35;0.85;;;3.00;99.90;;;;;;5048958;28;20041;-73
2021/03/12 05:05:41;;;;;;;2.33;0.90;;;3.00;99.90;;;;;;5065524;28;20028;-73
2021/03/12 05:08:11;;;;;;;1.88;1.02;;;3.00;99.90;;;;;;5048406;28;20068;-73
2021/03/12 05:11:07;;;;;;;3.10;1.42;;;3.00;99.90;;;;;;5048310;28;20029;-72
2021/03/12 05:13:40;;;;;;;1.25;0.77;;;3.00;99.90;;;;;;5080763;28;20033;-73
2021/03/12 05:16:06;;;;;;;2.47;1.00;;;3.00;99.90;;;;;;5082473;28;20036;-73
2021/03/12 05:18:32;;;;;;;5.10;1.00;;;3.00;99.90;;;;;;5046491;28;20068;-73
2021/03/12 05:21:01;;;;;;;4.82;1.15;;;2.90;99.90;;;;;;5081249;28;20056;-74
2021/03/12 05:23:27;;;;;;;1.65;1.23;;;2.90;99.90;;;;;;5081969;28;20052;-73
2021/03/12 05:25:54;;;;;;;4.47;1.48;;;2.90;99.90;;;;;;5080680;28;20507;-74
2021/03/12 05:28:20;;;;;;;1.77;0.98;;;2.90;99.90;;;;;;5049513;28;20029;-74
2021/03/12 05:30:46;;;;;;;5.88;1.13;;;2.90;99.90;;;;;;5081584;28;20771;-74
2021/03/12 05:33:12;;;;;;;1.52;1.08;;;2.90;99.90;;;;;;5048432;28;20041;-74
2021/03/12 05:35:38;;;;;;;2.20;1.17;;;2.90;99.90;;;;;;5079888;28;20056;-74
2021/03/12 05:38:04;;;;;;;2.70;0.90;;;2.90;99.90;;;;;;5049056;28;20029;-74
2021/03/12 05:40:30;;;;;;;3.63;0.90;;;3.00;99.90;;;;;;5081229;28;20029;-72
2021/03/12 05:42:57;;;;;;;2.47;0.82;;;3.00;99.90;;;;;;5049756;28;20074;-74
2021/03/12 05:45:23;;;;;;;1.98;0.85;;;3.00;99.90;;;;;;5049868;28;20041;-74
2021/03/12 05:48:07;;;;;;;1.67;0.98;;;3.00;99.90;;;;;;5080246;28;20399;-74
2021/03/12 05:50:33;;;;;;;3.47;0.65;;;3.10;99.90;;;;;;5081348;28;20025;-73
2021/03/12 05:52:59;;;;;;;3.28;1.10;;;3.10;99.90;;;;;;5081957;28;20388;-73
2021/03/12 05:55:29;;;;;;;3.20;1.13;;;3.10;99.90;;;;;;5048385;28;20127;-74
2021/03/12 05:57:55;;;;;;;1.75;1.05;;;3.10;99.90;;;;;;5078701;28;20399;-74
2021/03/12 06:00:22;;;;;;;1.00;0.90;;;3.10;99.90;;;;;;5081856;28;20021;-73
2021/03/12 06:02:52;;;;;;;1.85;0.85;;;3.20;99.90;;;;;;5048167;28;20590;-73
2021/03/12 06:05:29;;;;;;;4.60;1.05;;;3.10;99.90;;;;;;5048377;28;20507;-73
2021/03/12 06:07:55;;;;;;;2.88;1.00;;;3.10;99.90;;;;;;5048880;28;20029;-74
2021/03/12 06:10:22;;;;;;;2.92;0.73;;;3.20;99.90;;;;;;5081559;28;20032;-74
2021/03/12 06:12:51;;;;;;;3.92;0.98;;;3.20;99.90;;;;;;5047965;28;20029;-74
2021/03/12 06:15:17;;;;;;;1.52;1.00;;;3.20;99.90;;;;;;5048460;28;20391;-75
2021/03/12 06:17:47;;;;;;;1.70;0.95;;;3.20;99.90;;;;;;5081169;28;20017;-74
2021/03/12 06:20:19;;;;;;;4.47;0.90;;;3.20;99.90;;;;;;5046072;28;20108;-74
2021/03/12 06:22:54;;;;;;;2.40;0.82;;;3.20;99.90;;;;;;5049044;28;20107;-73
2021/03/12 06:25:22;;;;;;;4.03;1.25;;;3.20;99.90;;;;;;5080279;28;20472;-74
2021/03/12 06:28:15;;;;;;;4.03;1.13;;;3.20;99.90;;;;;;5080161;28;20422;-74
2021/03/12 06:31:28;;;;;;;3.63;0.80;;;3.20;99.90;;;;;;5079299;28;20037;-74
2021/03/12 06:34:08;;;;;;;3.90;0.70;;;3.30;99.90;;;;;;5080632;28;20025;-73
2021/03/12 06:36:48;;;;;;;1.73;0.52;;;3.30;99.90;;;;;;5080223;28;20503;-74
2021/03/12 06:39:34;;;;;;;4.78;0.80;;;3.30;99.90;;;;;;5079823;28;20065;-74
2021/03/12 06:42:14;;;;;;;4.50;0.82;;;3.40;99.90;;;;;;5080763;28;20033;-75
2021/03/12 06:44:50;;;;;;;7.25;0.85;;;3.40;99.90;;;;;;5048162;28;20037;-74
2021/03/12 06:47:22;;;;;;;1.77;0.80;;;3.40;99.90;;;;;;5031290;28;20029;-74
2021/03/12 06:49:56;;;;;;;4.40;0.75;;;3.40;99.90;;;;;;5081369;28;20058;-74
2021/03/12 06:52:37;;;;;;;4.63;1.95;;;3.50;99.90;;;;;;5078104;28;20052;-74
2021/03/12 06:55:13;;;;;;;3.90;1.02;;;3.50;99.90;;;;;;5081514;28;20040;-75
2021/03/12 06:57:47;;;;;;;4.13;1.25;;;3.60;99.90;;;;;;5082802;28;20032;-73
2021/03/12 07:00:18;;;;;;;3.42;1.77;;;3.70;99.90;;;;;;5067752;28;20032;-74
2021/03/12 07:02:50;;;;;;;4.15;0.70;;;3.80;99.90;;;;;;5072994;28;20049;-74
2021/03/12 07:05:25;;;;;;;2.60;0.90;;;3.80;99.90;;;;;;5049748;28;20106;-75
2021/03/12 07:07:57;;;;;;;3.72;1.10;;;3.70;99.90;;;;;;5066818;28;20021;-74
2021/03/12 07:10:46;;;;;;;1.02;0.77;;;3.80;99.90;;;;;;5101136;28;20430;-74
2021/03/12 07:13:42;;;;;;;2.70;0.85;;;3.90;99.90;;;;;;5101441;28;20124;-74
2021/03/12 07:16:16;;;;;;;5.30;1.00;;;3.90;99.90;;;;;;5100305;28;20139;-74
2021/03/12 07:18:46;;;;;;;1.15;0.90;;;3.90;99.90;;;;;;5101469;28;20032;-74
2021/03/12 07:21:18;;;;;;;1.95;0.90;;;3.90;99.90;;;;;;5099745;28;20051;-74
2021/03/12 07:24:06;;;;;;;4.03;1.10;;;3.90;99.90;;;;;;5101463;28;20025;-74
2021/03/12 07:26:36;;;;;;;4.55;0.60;;;3.90;99.90;;;;;;5100625;28;20047;-74
2021/03/12 07:29:06;;;;;;;1.88;0.73;;;3.90;99.90;;;;;;5082962;28;20025;-74
2021/03/12 07:31:49;;;;;;;1.15;0.75;;;4.00;99.90;;;;;;5065381;28;20036;-74
2021/03/12 07:34:33;;;;;;;3.00;1.10;;;4.00;99.90;;;;;;5082144;28;20037;-74
2021/03/12 07:37:07;;;;;;;3.65;1.02;;;4.00;99.90;;;;;;5082226;28;20108;-74
2021/03/12 07:39:44;;;;;;;5.00;0.80;;;4.00;99.90;;;;;;5084404;28;20470;-74
2021/03/12 07:42:18;;;;;;;3.30;0.88;;;4.00;99.90;;;;;;5080901;28;20032;-74
2021/03/12 07:45:07;;;;;;;1.38;0.90;;;4.00;99.90;;;;;;5083103;28;20021;-74
2021/03/12 07:47:58;;;;;;;1.58;0.68;;;4.10;99.90;;;;;;5030159;28;20025;-74
2021/03/12 07:50:36;;;;;;;2.17;0.90;;;4.10;99.90;;;;;;5081987;28;20033;-73
2021/03/12 07:53:07;;;;;;;1.25;0.68;;;4.10;99.90;;;;;;5083866;28;20031;-74
2021/03/12 07:55:50;;;;;;;2.15;1.10;;;4.20;99.90;;;;;;5082865;28;20025;-74
2021/03/12 07:58:53;;;;;;;4.15;0.88;;;4.30;99.90;;;;;;5030909;28;20060;-73
2021/03/12 08:01:53;;;;;;;1.00;0.80;;;4.30;99.90;;;;;;5049701;28;20428;-74
2021/03/12 08:04:38;;;;;;;4.80;0.82;;;4.30;99.90;;;;;;5082200;28;20029;-73
2021/03/12 08:07:20;;;;;;;1.48;0.80;;;4.30;99.90;;;;;;5049472;28;20042;-74
2021/03/12 08:09:52;;;;;;;3.85;1.40;;;4.40;99.90;;;;;;5082940;28;20028;-74
2021/03/12 08:12:40;;;;;;;3.78;1.25;;;4.40;99.90;;;;;;5048300;28;20392;-73
2021/03/12 08:15:26;;;;;;;6.03;1.55;;;4.30;99.90;;;;;;5051609;28;20051;-73
2021/03/12 08:18:22;;;;;;;2.17;0.80;;;4.40;99.90;;;;;;5047666;28;20399;-74
2021/03/12 08:20:57;;;;;;;2.90;1.23;;;4.50;99.90;;;;;;5080203;28;20075;-74
2021/03/12 08:23:34;;;;;;;2.35;1.10;;;4.60;99.90;;;;;;5083433;28;20503;-74
2021/03/12 08:26:06;;;;;;;3.70;1.00;;;4.70;99.90;;;;;;5083267;28;20021;-74
2021/03/12 08:29:35;;;;;;;3.67;0.95;;;4.80;99.90;;;;;;5049459;28;20059;-73
2021/03/12 08:32:38;;;;;;;4.00;0.90;;;4.90;99.90;;;;;;5076944;28;20044;-74
2021/03/12 08:35:39;;;;;;;2.13;0.98;;;5.00;99.90;;;;;;5040836;28;20071;-74
2021/03/12 08:38:35;;;;;;;1.42;0.82;;;5.00;99.90;;;;;;5034900;28;20431;-74
2021/03/12 08:41:40;;;;;;;2.38;0.95;;;5.00;99.90;;;;;;5043889;28;20491;-75
2021/03/12 08:44:41;;;;;;;2.13;0.82;;;5.10;99.90;;;;;;5016068;28;20074;-74
2021/03/12 08:47:22;;;;;;;2.13;1.10;;;5.10;99.90;;;;;;5054253;28;20033;-74
2021/03/12 08:49:53;;;;;;;2.42;0.90;;;5.20;99.90;;;;;;5041603;28;20045;-73
2021/03/12 08:52:28;;;;;;;;;;;5.20;99.90;;;;;;5073582;28;20119;-73
2021/03/12 08:55:01;;;;;;;1.73;0.70;;;5.30;99.90;;;;;;5060783;28;19913;-73
2021/03/12 08:57:29;;;;;;;1.60;0.88;;;5.30;99.90;;;;;;5078934;28;20029;-74
2021/03/12 09:00:06;;;;;;;3.08;0.70;;;5.40;99.90;;;;;;5078632;28;20420;-74
2021/03/12 09:03:24;;;;;;;2.17;0.90;;;5.40;99.90;;;;;;5033188;28;20029;-75
2021/03/12 09:06:29;;;;;;;1.30;0.60;;;5.30;99.90;;;;;;5041387;28;20044;-74
2021/03/12 09:09:26;;;;;;;1.85;0.50;;;5.30;99.90;;;;;;5027163;28;20099;-74
2021/03/12 09:12:10;;;;;;;2.92;0.60;;;5.30;99.90;;;;;;5045462;28;20071;-74
2021/03/12 09:14:45;;;;;;;4.45;1.00;;;5.30;99.90;;;;;;5077493;28;20033;-74
2021/03/12 09:17:11;;;;;;;5.90;1.55;;;5.30;99.90;;;;;;5078516;28;20045;-73
2021/03/12 09:19:39;;;;;;;3.22;0.95;;;5.30;99.90;;;;;;5078808;28;20028;-74
2021/03/12 09:22:12;;;;;;;1.23;0.70;;;5.20;99.90;;;;;;5044666;28;20040;-74
2021/03/12 09:24:55;;;;;;;4.72;0.88;;;5.20;99.90;;;;;;5044937;28;20033;-73
2021/03/12 09:27:42;;;;;;;3.55;0.80;;;5.20;99.90;;;;;;5038490;28;20039;-74
2021/03/12 09:30:29;;;;;;;2.13;1.00;;;5.20;99.90;;;;;;5042968;28;20032;-74
2021/03/12 09:33:08;;;;;;;3.80;0.60;;;5.30;99.90;;;;;;5059179;28;20524;-74
2021/03/12 09:35:41;;;;;;;2.50;0.88;;;5.40;99.90;;;;;;5044170;28;20025;-73
2021/03/12 09:38:08;;;;;;;2.65;1.00;;;5.40;99.90;;;;;;5078019;28;20025;-73
2021/03/12 09:40:42;;;;;;;0.77;0.70;;;5.50;99.90;;;;;;5024652;28;20029;-74
2021/03/12 09:43:20;;;;;;;3.83;0.90;;;5.50;99.90;;;;;;5060634;28;20056;-74
2021/03/12 09:45:58;;;;;;;3.38;0.88;;;5.50;99.90;;;;;;5075068;28;20040;-73
2021/03/12 09:48:33;;;;;;;2.53;0.68;;;5.60;99.90;;;;;;5077517;28;20535;-73
2021/03/12 09:51:05;;;;;;;2.88;0.93;;;5.80;99.90;;;;;;5076555;28;20032;-74
2021/03/12 09:53:33;;;;;;;3.20;0.60;;;5.90;99.90;;;;;;5044213;28;20262;-73
2021/03/12 09:56:09;;;;;;;2.33;0.68;;;6.00;99.90;;;;;;5044371;28;20687;-72
2021/03/12 09:58:41;;;;;;;2.28;0.80;;;6.30;99.90;;;;;;5076599;28;20029;-74
2021/03/12 10:01:38;;;;;;;1.75;0.60;;;6.70;99.90;;;;;;5044373;28;20044;-73
2021/03/12 10:04:29;;;;;;;2.30;0.35;;;7.00;99.90;;;;;;5076123;28;20037;-73
2021/03/12 10:07:07;;;;;;;2.35;0.68;;;7.20;99.90;;;;;;5074658;28;20029;-74
2021/03/12 10:09:34;;;;;;;0.98;0.50;;;7.40;99.90;;;;;;5074048;28;20029;-73
2021/03/12 10:12:19;;;;;;;;;;;7.40;99.90;;;;;;5075354;28;20032;-74
2021/03/12 10:14:55;;;;;;;5.95;1.25;;;7.50;99.90;;;;;;5044209;28;19917;-74
2021/03/12 10:17:35;;;;;;;2.92;0.52;;;7.60;99.90;;;;;;5061635;28;20048;-74
2021/03/12 10:20:18;;;;;;;3.13;0.60;;;7.60;99.90;;;;;;5074735;28;20456;-74
2021/03/12 10:22:47;;;;;;;7.07;0.57;;;7.60;99.90;;;;;;5043746;28;20071;-74
2021/03/12 10:25:16;;;;;;;2.47;0.73;;;7.70;99.90;;;;;;5077616;28;20067;-74
2021/03/12 10:27:53;;;;;;;2.00;0.55;;;7.70;99.90;;;;;;5077272;28;20120;-73
2021/03/12 10:30:21;;;;;;;1.65;0.50;;;7.80;99.90;;;;;;5075315;28;20029;-73
2021/03/12 10:32:49;;;;;;;1.40;0.57;;;7.80;99.90;;;;;;5047351;28;20090;-73
2021/03/12 10:35:45;;;;;;;1.65;0.50;;;7.80;99.90;;;;;;5045541;28;20037;-73
2021/03/12 10:38:31;;;;;;;1.60;0.57;;;7.90;99.90;;;;;;5044390;28;20045;-72
2021/03/12 10:41:04;;;;;;;1.77;0.50;;;7.90;99.90;;;;;;5079251;28;20282;-72
2021/03/12 10:43:34;;;;;;;3.38;0.57;;;7.90;99.90;;;;;;5081399;28;20048;-72
2021/03/12 10:46:02;;;;;;;1.17;0.40;;;8.00;99.90;;;;;;5048118;28;20037;-72
2021/03/12 10:48:42;;;;;;;0.35;0.20;;;8.00;99.90;;;;;;5047811;28;20691;-72
2021/03/12 10:51:09;;;;;;;0.98;0.30;;;8.10;99.90;;;;;;5046637;28;20040;-72
2021/03/12 10:53:49;;;;;;;3.63;0.40;;;8.10;99.90;;;;;;5046035;28;20021;-72
2021/03/12 10:56:16;;;;;;;0.50;0.30;;;8.00;99.90;;;;;;5045070;28;20032;-72
2021/03/12 10:58:42;;;;;;;1.60;0.25;;;7.90;99.90;;;;;;5049489;28;20028;-72
2021/03/12 11:01:14;;;;;;;3.70;0.68;;;8.00;99.90;;;;;;5048342;28;20108;-73
2021/03/12 11:03:42;;;;;;;4.82;0.63;;;8.10;99.90;;;;;;5046544;28;20037;-72
2021/03/12 11:06:09;;;;;;;0.95;0.52;;;8.20;99.90;;;;;;5048457;28;20082;-72
2021/03/12 11:08:35;;;;;;;0.22;0.20;;;8.30;99.90;;;;;;5081236;28;20627;-72
2021/03/12 11:11:05;;;;;;;2.13;0.65;;;8.30;99.90;;;;;;5048431;28;20083;-72
2021/03/12 11:13:31;;;;;;;1.60;0.60;;;8.30;99.90;;;;;;5048793;28;20076;-72
2021/03/12 11:15:57;;;;;;;0.88;0.73;;;8.30;99.90;;;;;;5049381;28;20021;-72
2021/03/12 11:18:26;;;;;;;1.45;0.50;;;8.30;99.90;;;;;;5047930;28;20044;-73
2021/03/12 11:20:52;;;;;;;0.30;0.30;;;8.30;99.90;;;;;;5046757;28;20424;-72
2021/03/12 11:23:18;;;;;;;1.40;0.55;;;8.40;99.90;;;;;;5048969;28;20491;-73
2021/03/12 11:25:44;;;;;;;3.40;0.50;;;8.40;99.90;;;;;;5048796;28;20033;-73
2021/03/12 11:28:09;;;;;;;2.13;0.50;;;8.50;99.90;;;;;;5048566;28;20033;-73
2021/03/12 11:30:35;;;;;;;2.63;0.40;;;8.50;99.90;;;;;;5047800;28;20021;-72
2021/03/12 11:33:03;;;;;;;1.20;0.45;;;8.60;99.90;;;;;;5048088;28;20037;-72
2021/03/12 11:35:29;;;;;;;3.63;0.38;;;8.50;99.90;;;;;;5049023;28;20442;-73
2021/03/12 11:37:54;;;;;;;0.70;0.30;;;8.50;99.90;;;;;;5047233;28;20032;-72
2021/03/12 11:40:20;;;;;;;2.85;0.80;;;8.40;99.90;;;;;;5048374;28;20037;-72
2021/03/12 11:42:46;;;;;;;1.45;0.40;;;8.40;99.90;;;;;;5048617;28;20061;-73
2021/03/12 11:45:15;;;;;;;4.18;0.40;;;8.30;99.90;;;;;;5047832;28;20148;-72
2021/03/12 11:47:41;;;;;;;0.73;0.25;;;8.20;99.90;;;;;;5047597;28;20025;-73
2021/03/12 11:50:16;;;;;;;2.03;0.45;;;8.20;99.90;;;;;;5048191;28;20024;-73
2021/03/12 11:52:42;;;;;;;1.60;0.60;;;8.20;99.90;;;;;;5045681;28;20036;-73
2021/03/12 11:55:08;;;;;;;3.20;0.55;;;8.20;99.90;;;;;;5048359;28;20029;-74
2021/03/12 11:57:36;;;;;;;1.25;0.40;;;8.20;99.90;;;;;;5046744;28;20112;-74
2021/03/12 12:00:07;;;;;;;3.30;0.85;;;8.30;99.90;;;;;;5047558;28;20025;-73
2021/03/12 12:02:38;;;;;;;;;;;8.40;99.90;;;;;;5044979;28;20951;-74
2021/03/12 12:05:06;;;;;;;1.67;0.32;;;8.50;99.90;;;;;;5048123;28;19912;-73
2021/03/12 12:07:32;;;;;;;3.45;0.60;;;8.70;99.90;;;;;;5047633;28;20500;-73
2021/03/12 12:09:58;;;;;;;1.33;0.50;;;9.00;99.90;;;;;;5042912;28;20044;-73
2021/03/12 12:12:23;;;;;;;0.70;0.45;;;9.30;99.90;;;;;;5047065;28;20029;-73
2021/03/12 12:14:49;;;;;;;0.70;0.30;;;9.50;99.90;;;;;;5081614;28;20063;-73
2021/03/12 12:17:15;;;;;;;0.70;0.57;;;9.60;99.90;;;;;;5047284;28;20033;-73
2021/03/12 12:19:41;;;;;;;5.72;0.50;;;9.50;99.90;;;;;;5052145;28;20035;-73
2021/03/12 12:22:09;;;;;;;1.58;0.32;;;9.40;99.90;;;;;;5045848;28;20035;-73
2021/03/12 12:24:36;;;;;;;2.10;0.40;;;9.20;99.90;;;;;;5042588;28;20037;-73
2021/03/12 12:27:03;;;;;;;1.63;0.35;;;9.10;99.90;;;;;;5043631;28;20051;-73
2021/03/12 12:29:28;;;;;;;1.42;0.40;;;8.90;99.90;;;;;;5045898;28;20021;-74
2021/03/12 12:31:54;;;;;;;5.38;0.73;;;9.00;99.90;;;;;;5043741;28;20468;-73
2021/03/12 12:34:20;;;;;;;2.05;0.40;;;9.20;99.90;;;;;;5042899;28;20435;-73
2021/03/12 12:36:46;;;;;;;0.90;0.30;;;9.50;99.90;;;;;;5070477;28;20029;-73
2021/03/12 12:39:12;;;;;;;1.08;0.40;;;9.70;99.90;;;;;;5045065;28;20056;-73
2021/03/12 12:41:40;;;;;;;0.68;0.50;;;9.70;99.90;;;;;;5046316;28;20033;-73
2021/03/12 12:44:07;;;;;;;1.35;0.70;;;9.50;99.90;;;;;;5045201;28;20041;-73
2021/03/12 12:46:33;;;;;;;2.40;0.40;;;9.40;99.90;;;;;;5044482;28;20492;-73
2021/03/12 12:48:59;;;;;;;0.75;0.40;;;9.20;99.90;;;;;;5077621;28;20055;-72
2021/03/12 12:51:25;;;;;;;0.98;0.30;;;9.10;99.90;;;;;;5043816;28;20372;-72
2021/03/12 12:53:51;;;;;;;3.47;0.65;;;9.00;99.90;;;;;;5045636;28;20040;-73
2021/03/12 12:56:16;;;;;;;3.15;0.45;;;8.90;99.90;;;;;;5041108;28;20033;-72
2021/03/12 12:58:42;;;;;;;1.23;0.30;;;9.00;99.90;;;;;;5043194;28;20036;-72
2021/03/12 13:01:09;;;;;;;1.45;0.20;;;9.10;99.90;;;;;;5045714;28;20427;-72
2021/03/12 13:03:34;;;;;;;3.28;0.75;;;9.20;99.90;;;;;;5045881;28;20029;-72
2021/03/12 13:06:00;;;;;;;1.75;0.45;;;9.40;99.90;;;;;;5046236;28;20086;-72
2021/03/12 13:08:26;;;;;;;0.80;0.35;;;9.70;99.90;;;;;;5078482;28;20035;-72
2021/03/12 13:10:52;;;;;;;1.75;0.63;;;9.80;99.90;;;;;;5078029;28;20037;-72
2021/03/12 13:13:18;;;;;;;4.40;0.65;;;9.90;99.90;;;;;;5046524;28;20092;-72
2021/03/12 13:15:43;;;;;;;3.63;0.40;;;9.80;99.90;;;;;;5045900;28;20032;-72
2021/03/12 13:18:10;;;;;;;4.15;0.70;;;9.60;99.90;;;;;;5044608;28;20044;-72
2021/03/12 13:20:43;;;;;;;3.80;0.60;;;9.40;99.90;;;;;;5045715;28;20542;-72
2021/03/12 13:23:08;;;;;;;2.58;0.65;;;9.00;99.90;;;;;;5046380;28;20025;-73
2021/03/12 13:25:34;;;;;;;1.83;0.47;;;8.70;99.90;;;;;;5045954;28;20044;-73